Paradise, MI (49768)

9:04 AM EDT on April 27, 2015 (GMT -0400)
APRSWXNET | | Change Station
CLOSE
Current Station
Personal Weather Station
Location: Paradise, MI
Elevation: 643 ft
Nearby Weather Stations

Elev 643 ft 46.61 °N, 85.04 °W | Updated 22 minutes ago

Mostly Cloudy
Mostly Cloudy
40 °F
Feels Like 40 °F
N
1
Wind Variable Wind from North
Gusts 7.0 mph

Today
High -- | Low -- °F
--% Chance of Precip.
Yesterday
High -- | Low -- °F
Precip. -- in
6:32 AM 8:44 PM
Waxing Gibbous, 65% visible
Pressure 30.07 in
Visibility 10.0 miles
Clouds Scattered Clouds 1900 ft
Mostly Cloudy 2500 ft
Windchill 40 °F
Dew Point 35 °F
Humidity 82%
Rainfall in
Snow Depth Not available.
UV 1 out of 12
Pollen 9.80 out of 12
Air Quality Not available.
Flu Activity Regional
METAR KERY 271234Z AUTO 36010G15KT 10SM SCT019 BKN025 04/01 A3007 RMK AO2 T00380006

More Conditions Fewer Conditions

Pressure 30.07 in
Visibility 10.0 miles
Clouds Scattered Clouds 1900 ft
Mostly Cloudy 2500 ft
Windchill 40 °F
Dew Point 35 °F
Humidity 82%
Rainfall in
Snow Depth Not available.
UV 1 out of 12
Pollen 9.80 out of 12
Air Quality Not available.
Flu Activity Regional
METAR KERY 271234Z AUTO 36010G15KT 10SM SCT019 BKN025 04/01 A3007 RMK AO2 T00380006

More Conditions Fewer Conditions

Nowcast | as of 9:00 am EDT on April 27, 2015

At 10 am...cloudy. Temperature 42. North winds 7 mph. At 12 PM...cloudy. Temperature 45. North winds 10 mph. At 2 PM...mostly cloudy. Temperature 47. Northwest winds 13 mph. At 4 PM...mostly cloudy. Temperature 47. Northwest winds 13 mph.

×

10-Day Weather Forecast

Almanac

Astronomy

Apr. 27, 2015 Rise Set
Actual Time
Civil Twilight
Nautical Twilight
Astronomical Twilight
Moon
Length of Visible Light
Length of Day
Tomorrow will be .
, % of the Moon is Illuminated

Today's Extremes

State Highs State Lows

Community

WunderPhotos

Upload Photos

1,817,301 photos uploaded!

WunderBlogs® & News

Nearby

Air Quality

  Air Quality AQ Index Pollutant
Not available.

Snow Depth

Station Depth Elevation

Earthquake Activity

City Distance Mag. Time & Date
Minimum magnitude displayed is 2.5.

Coastal Water Temperatures

Place Temperature

Stations

Nearby Weather Stations

Station Location Temp. Windchill Dew Point Humidity Wind Precip. Elev Updated Type